createdAt,value
2017-12-21T00:00:45.663Z,6.98
2017-12-21T00:01:45.635Z,6.97
2017-12-21T00:02:45.384Z,7.07
2017-12-21T00:03:45.645Z,7.03
2017-12-21T00:04:45.614Z,7.06
2017-12-21T00:05:45.616Z,7.07
2017-12-21T00:06:45.597Z,7.07
2017-12-21T00:07:45.568Z,7.06
2017-12-21T00:08:45.296Z,7.07
2017-12-21T00:09:45.540Z,7.13
2017-12-21T00:10:45.787Z,7.05
2017-12-21T00:11:45.525Z,7.06
2017-12-21T00:12:45.514Z,7.15
2017-12-21T00:13:45.508Z,7.15
2017-12-21T00:14:45.501Z,7.05
2017-12-21T00:15:45.501Z,7.09
2017-12-21T00:16:45.471Z,7.1
2017-12-21T00:17:45.185Z,7.02
2017-12-21T00:18:45.440Z,7.07
2017-12-21T00:19:45.446Z,7.13
2017-12-21T00:20:45.447Z,7.12
2017-12-21T00:21:45.397Z,7.15
2017-12-21T00:22:45.401Z,7.1
2017-12-21T00:23:45.385Z,7.2
2017-12-21T00:24:45.359Z,7.09
2017-12-21T00:25:45.354Z,7.07
2017-12-21T00:26:45.095Z,7.05
2017-12-21T00:27:45.328Z,7.09
2017-12-21T00:28:45.322Z,7.02
2017-12-21T00:29:45.321Z,7.13
2017-12-21T00:30:45.285Z,7.1
2017-12-21T00:31:45.316Z,7.16
2017-12-21T00:32:45.006Z,7.15
2017-12-21T00:33:45.256Z,7.13
2017-12-21T00:34:45.261Z,7.17
2017-12-21T00:35:45.229Z,7.17
2017-12-21T00:36:45.213Z,7.17
2017-12-21T00:37:45.223Z,7.17
2017-12-21T00:38:45.203Z,7.09
2017-12-21T00:39:45.192Z,7.09
2017-12-21T00:40:45.200Z,7.13
2017-12-21T00:41:45.162Z,7.15
2017-12-21T00:42:45.162Z,7.21
2017-12-21T00:43:45.148Z,7.16
2017-12-21T00:44:45.136Z,7.09
2017-12-21T00:45:45.128Z,7.15
2017-12-21T00:46:45.108Z,7.15
2017-12-21T00:47:44.824Z,7.16
2017-12-21T00:48:45.088Z,7.23
2017-12-21T00:49:45.059Z,7.2
2017-12-21T00:50:44.535Z,7.27
2017-12-21T00:51:45.049Z,7.21
2017-12-21T00:52:45.044Z,7.27
2017-12-21T00:53:45.011Z,7.24
2017-12-21T00:54:45.015Z,7.24
2017-12-21T00:55:44.750Z,7.3
2017-12-21T00:56:44.982Z,7.3
2017-12-21T00:57:44.985Z,7.27
2017-12-21T00:58:44.970Z,7.28
2017-12-21T00:59:44.962Z,7.27
2017-12-21T01:00:44.939Z,7.3
2017-12-21T01:01:44.915Z,7.28
2017-12-21T01:02:44.923Z,7.27
2017-12-21T01:03:44.901Z,7.27
2017-12-21T01:04:44.890Z,7.17
2017-12-21T01:05:44.876Z,7.16
2017-12-21T01:06:44.852Z,7.17
2017-12-21T01:07:44.851Z,7.25
2017-12-21T01:08:44.833Z,7.27
2017-12-21T01:09:44.827Z,7.25
2017-12-21T01:10:44.819Z,7.27
2017-12-21T01:11:44.830Z,7.3
2017-12-21T01:12:44.798Z,7.27
2017-12-21T01:13:44.780Z,7.3
2017-12-21T01:14:44.778Z,7.37
2017-12-21T01:15:44.766Z,7.4
2017-12-21T01:16:44.757Z,7.4
2017-12-21T01:17:44.735Z,7.43
2017-12-21T01:18:44.724Z,7.25
2017-12-21T01:19:44.443Z,7.39
2017-12-21T01:20:44.714Z,7.37
2017-12-21T01:21:44.687Z,7.32
2017-12-21T01:22:44.684Z,7.27
2017-12-21T01:23:44.676Z,7.37
2017-12-21T01:24:44.399Z,7.35
2017-12-21T01:25:44.628Z,7.27
2017-12-21T01:26:44.619Z,7.37
2017-12-21T01:27:44.629Z,7.34
2017-12-21T01:28:44.603Z,7.27
2017-12-21T01:29:44.583Z,7.35
2017-12-21T01:30:44.323Z,7.32
2017-12-21T01:31:44.568Z,7.32
2017-12-21T01:32:44.552Z,7.34
2017-12-21T01:33:44.555Z,7.32
2017-12-21T01:34:44.538Z,7.32
2017-12-21T01:35:44.252Z,7.34
2017-12-21T01:36:44.513Z,7.31
2017-12-21T01:37:44.486Z,7.28
2017-12-21T01:38:44.539Z,7.3
2017-12-21T01:39:44.466Z,7.27
2017-12-21T01:40:44.473Z,7.27
2017-12-21T01:41:44.471Z,7.34
2017-12-21T01:42:44.442Z,7.25
2017-12-21T01:43:44.422Z,7.34
2017-12-21T01:44:44.411Z,7.24
2017-12-21T01:45:44.136Z,7.31
2017-12-21T01:46:44.399Z,7.31
2017-12-21T01:47:44.378Z,7.31
2017-12-21T01:48:44.355Z,7.31
2017-12-21T01:49:44.352Z,7.34
2017-12-21T01:50:44.349Z,7.4
2017-12-21T01:51:43.806Z,7.35
2017-12-21T01:52:44.317Z,7.32
2017-12-21T01:53:44.306Z,7.42
2017-12-21T01:54:44.300Z,7.3
2017-12-21T01:55:44.275Z,7.37
2017-12-21T01:56:44.262Z,7.42
2017-12-21T01:57:44.264Z,7.42
2017-12-21T01:58:44.258Z,7.42
2017-12-21T01:59:44.249Z,7.37
2017-12-21T02:00:44.214Z,7.39
2017-12-21T02:01:44.215Z,7.49
2017-12-21T02:02:44.205Z,7.43
2017-12-21T02:03:44.190Z,7.42
2017-12-21T02:04:44.183Z,7.37
2017-12-21T02:05:44.167Z,7.39
2017-12-21T02:06:44.153Z,7.32
2017-12-21T02:07:44.171Z,7.4
2017-12-21T02:08:44.130Z,7.39
2017-12-21T02:09:44.124Z,7.46
2017-12-21T02:10:44.109Z,7.53
2017-12-21T02:11:44.081Z,7.46
2017-12-21T02:12:44.072Z,7.55
2017-12-21T02:13:44.120Z,7.57
2017-12-21T02:14:43.806Z,7.49
2017-12-21T02:15:44.048Z,7.5
2017-12-21T02:16:44.034Z,7.49
2017-12-21T02:17:44.022Z,7.39
2017-12-21T02:18:44.011Z,7.46
2017-12-21T02:19:43.999Z,7.52
2017-12-21T02:20:43.719Z,7.53
2017-12-21T02:21:43.966Z,7.43
2017-12-21T02:22:43.962Z,7.43
2017-12-21T02:23:43.953Z,7.42
2017-12-21T02:24:43.681Z,7.49
2017-12-21T02:25:43.927Z,7.43
2017-12-21T02:26:43.933Z,7.46
2017-12-21T02:27:43.901Z,7.45
2017-12-21T02:28:43.883Z,7.42
2017-12-21T02:29:43.883Z,7.37
2017-12-21T02:30:43.871Z,7.43
2017-12-21T02:31:43.863Z,7.43
2017-12-21T02:32:43.860Z,7.42
2017-12-21T02:33:43.831Z,7.4
2017-12-21T02:34:43.572Z,7.43
2017-12-21T02:35:43.825Z,7.43
2017-12-21T02:36:43.825Z,7.45
2017-12-21T02:37:43.777Z,7.5
2017-12-21T02:38:43.789Z,7.57
2017-12-21T02:39:43.769Z,7.5
2017-12-21T02:40:43.750Z,7.55
2017-12-21T02:41:43.753Z,7.57
2017-12-21T02:42:43.723Z,7.48
2017-12-21T02:43:43.737Z,7.49
2017-12-21T02:44:43.708Z,7.48
2017-12-21T02:45:43.690Z,7.52
2017-12-21T02:46:43.687Z,7.48
2017-12-21T02:47:43.663Z,7.48
2017-12-21T02:48:43.651Z,7.57
2017-12-21T02:49:43.658Z,7.52
2017-12-21T02:50:43.636Z,7.45
2017-12-21T02:51:43.630Z,7.49
2017-12-21T02:52:43.621Z,7.52
2017-12-21T02:53:43.593Z,7.45
2017-12-21T02:54:43.591Z,7.39
2017-12-21T02:55:43.325Z,7.4
2017-12-21T02:56:43.556Z,7.48
2017-12-21T02:57:43.595Z,7.43
2017-12-21T02:58:43.552Z,7.4
2017-12-21T02:59:43.523Z,7.42
2017-12-21T03:00:43.532Z,7.45
2017-12-21T03:01:43.242Z,7.57
2017-12-21T03:02:43.516Z,7.5
2017-12-21T03:03:43.471Z,7.53
2017-12-21T03:04:43.473Z,7.43
2017-12-21T03:05:43.469Z,7.52
2017-12-21T03:06:43.458Z,7.5
2017-12-21T03:07:43.445Z,7.61
2017-12-21T03:08:43.426Z,7.5
2017-12-21T03:09:43.414Z,7.48
2017-12-21T03:10:43.391Z,7.5
2017-12-21T03:11:43.401Z,7.5
2017-12-21T03:12:43.373Z,7.55
2017-12-21T03:13:43.372Z,7.52
2017-12-21T03:14:43.353Z,7.57
2017-12-21T03:15:43.330Z,7.53
2017-12-21T03:16:43.338Z,7.43
2017-12-21T03:17:43.316Z,7.49
2017-12-21T03:18:43.319Z,7.58
2017-12-21T03:19:43.300Z,7.52
2017-12-21T03:20:43.283Z,7.55
2017-12-21T03:21:43.266Z,7.55
2017-12-21T03:22:43.247Z,7.63
2017-12-21T03:23:43.259Z,7.64
2017-12-21T03:24:43.245Z,7.55
2017-12-21T03:25:43.225Z,7.52
2017-12-21T03:26:43.215Z,7.58
2017-12-21T03:27:43.191Z,7.57
2017-12-21T03:28:43.191Z,7.64
2017-12-21T03:29:43.212Z,7.61
2017-12-21T03:30:43.173Z,7.53
2017-12-21T03:31:43.153Z,7.55
2017-12-21T03:32:43.136Z,7.53
2017-12-21T03:33:43.129Z,7.64
2017-12-21T03:34:43.122Z,7.58
2017-12-21T03:35:43.103Z,7.5
2017-12-21T03:36:43.099Z,7.55
2017-12-21T03:37:43.105Z,7.52
2017-12-21T03:38:43.064Z,7.58
2017-12-21T03:39:42.809Z,7.55
2017-12-21T03:40:43.046Z,7.52
2017-12-21T03:41:43.029Z,7.49
2017-12-21T03:42:43.029Z,7.53
2017-12-21T03:43:43.005Z,7.61
2017-12-21T03:44:42.995Z,7.6
2017-12-21T03:45:43.001Z,7.58
2017-12-21T03:46:42.972Z,7.63
2017-12-21T03:47:42.966Z,7.58
2017-12-21T03:48:42.957Z,7.58
2017-12-21T03:49:42.945Z,7.69
2017-12-21T03:50:42.948Z,7.57
2017-12-21T03:51:42.927Z,7.58
2017-12-21T03:52:42.906Z,7.57
2017-12-21T03:53:42.894Z,7.53
2017-12-21T03:54:42.881Z,7.57
2017-12-21T03:55:42.864Z,7.52
2017-12-21T03:56:42.863Z,7.52
2017-12-21T03:57:42.591Z,7.61
2017-12-21T03:58:42.840Z,7.57
2017-12-21T03:59:42.818Z,7.64
2017-12-21T04:00:42.807Z,7.57
2017-12-21T04:01:42.793Z,7.6
2017-12-21T04:02:42.804Z,7.58
2017-12-21T04:03:42.790Z,7.6
2017-12-21T04:04:42.771Z,7.69
2017-12-21T04:05:42.745Z,7.64
2017-12-21T04:06:42.737Z,7.6
2017-12-21T04:07:42.740Z,7.58
2017-12-21T04:08:42.714Z,7.58
2017-12-21T04:09:42.711Z,7.58
2017-12-21T04:10:42.702Z,7.69
2017-12-21T04:11:42.680Z,7.69
2017-12-21T04:12:42.410Z,7.69
2017-12-21T04:13:42.656Z,7.69
2017-12-21T04:14:42.404Z,7.68
2017-12-21T04:15:42.654Z,7.64
2017-12-21T04:16:42.371Z,7.69
2017-12-21T04:17:42.359Z,7.8
2017-12-21T04:18:42.352Z,7.75
2017-12-21T04:19:42.607Z,7.79
2017-12-21T04:20:42.581Z,7.67
2017-12-21T04:21:42.565Z,7.75
2017-12-21T04:22:42.559Z,7.72
2017-12-21T04:23:42.544Z,7.69
2017-12-21T04:24:42.537Z,7.68
2017-12-21T04:25:42.516Z,7.68
2017-12-21T04:26:42.533Z,7.72
2017-12-21T04:27:42.507Z,7.72
2017-12-21T04:28:42.479Z,7.71
2017-12-21T04:29:42.473Z,7.69
2017-12-21T04:30:42.481Z,7.75
2017-12-21T04:31:42.455Z,7.67
2017-12-21T04:32:42.437Z,7.77
2017-12-21T04:33:42.435Z,7.67
2017-12-21T04:34:42.421Z,7.79
2017-12-21T04:35:42.158Z,7.72
2017-12-21T04:36:42.410Z,7.82
2017-12-21T04:37:42.398Z,7.72
2017-12-21T04:38:42.364Z,7.79
2017-12-21T04:39:42.370Z,7.83
2017-12-21T04:40:42.086Z,7.79
2017-12-21T04:41:42.360Z,7.75
2017-12-21T04:42:42.341Z,7.75
2017-12-21T04:43:42.322Z,7.75
2017-12-21T04:44:42.305Z,7.79
2017-12-21T04:45:42.291Z,7.86
2017-12-21T04:46:42.030Z,7.85
2017-12-21T04:47:42.260Z,7.82
2017-12-21T04:48:42.000Z,7.8
2017-12-21T04:49:42.258Z,7.83
2017-12-21T04:50:42.243Z,7.92
2017-12-21T04:51:42.232Z,7.92
2017-12-21T04:52:42.210Z,7.87
2017-12-21T04:53:42.198Z,7.86
2017-12-21T04:54:42.191Z,7.87
2017-12-21T04:55:42.168Z,7.9
2017-12-21T04:56:42.172Z,7.97
2017-12-21T04:57:42.143Z,7.89
2017-12-21T04:58:42.143Z,7.93
2017-12-21T04:59:42.135Z,7.93
2017-12-21T05:00:42.112Z,7.89
2017-12-21T05:01:42.111Z,7.95
2017-12-21T05:02:42.104Z,8.01
2017-12-21T05:03:41.828Z,7.93
2017-12-21T05:04:42.075Z,7.95
2017-12-21T05:05:42.072Z,8
2017-12-21T05:06:42.051Z,7.97
2017-12-21T05:07:42.029Z,8
2017-12-21T05:08:42.024Z,8.07
2017-12-21T05:09:42.006Z,8.05
2017-12-21T05:10:41.998Z,8.07
2017-12-21T05:11:41.985Z,8.04
2017-12-21T05:12:41.987Z,7.98
2017-12-21T05:13:41.987Z,8.01
2017-12-21T05:14:41.954Z,8.02
2017-12-21T05:15:41.963Z,8.15
2017-12-21T05:16:41.931Z,8.18
2017-12-21T05:17:41.924Z,8.15
2017-12-21T05:18:41.656Z,8.23
2017-12-21T05:19:41.902Z,8.15
2017-12-21T05:20:41.628Z,8.22
2017-12-21T05:21:41.893Z,8.02
2017-12-21T05:22:41.869Z,8.02
2017-12-21T05:23:41.870Z,8.01
2017-12-21T05:24:41.838Z,8.04
2017-12-21T05:25:41.825Z,8.05
2017-12-21T05:26:41.824Z,8.02
2017-12-21T05:27:41.817Z,8.11
2017-12-21T05:28:41.798Z,8.12
2017-12-21T05:29:41.782Z,8.18
2017-12-21T05:30:41.779Z,8.08
2017-12-21T05:31:41.759Z,8.12
2017-12-21T05:32:41.747Z,8.11
2017-12-21T05:33:41.740Z,8.08
2017-12-21T05:34:41.743Z,8.02
2017-12-21T05:35:41.720Z,8.02
2017-12-21T05:36:41.728Z,8.16
2017-12-21T05:37:41.692Z,8.11
2017-12-21T05:38:41.692Z,8.12
2017-12-21T05:39:41.674Z,8.15
2017-12-21T05:40:41.657Z,8.15
2017-12-21T05:41:41.393Z,8.16
2017-12-21T05:42:41.644Z,8.12
2017-12-21T05:43:41.695Z,8.12
2017-12-21T05:44:41.646Z,8.12
2017-12-21T05:45:41.616Z,8.16
2017-12-21T05:46:41.605Z,8.16
2017-12-21T05:47:41.586Z,8.05
2017-12-21T05:48:41.589Z,8.02
2017-12-21T05:49:41.301Z,8.16
2017-12-21T05:50:41.548Z,8.16
2017-12-21T05:51:41.535Z,8.19
2017-12-21T05:52:41.527Z,8.2
2017-12-21T05:53:41.516Z,8.16
2017-12-21T05:54:41.501Z,8.2
2017-12-21T05:55:41.489Z,8.28
2017-12-21T05:56:41.478Z,8.25
2017-12-21T05:57:41.472Z,8.33
2017-12-21T05:58:41.472Z,8.36
2017-12-21T05:59:41.462Z,8.34
2017-12-21T06:00:41.427Z,8.36
2017-12-21T06:01:41.428Z,8.33
2017-12-21T06:02:41.416Z,8.34
2017-12-21T06:03:41.405Z,8.41
2017-12-21T06:04:41.387Z,8.38
2017-12-21T06:05:41.122Z,8.3
2017-12-21T06:06:41.368Z,8.34
2017-12-21T06:07:41.097Z,8.5
2017-12-21T06:08:41.350Z,8.36
2017-12-21T06:09:41.335Z,8.45
2017-12-21T06:10:41.320Z,8.5
2017-12-21T06:11:41.312Z,8.33
2017-12-21T06:12:41.305Z,8.37
2017-12-21T06:13:41.030Z,8.37
2017-12-21T06:14:41.287Z,8.44
2017-12-21T06:15:41.280Z,8.43
2017-12-21T06:16:41.256Z,8.37
2017-12-21T06:17:41.244Z,8.37
2017-12-21T06:18:41.224Z,8.33
2017-12-21T06:19:40.961Z,8.34
2017-12-21T06:20:41.245Z,8.36
2017-12-21T06:21:41.196Z,8.37
2017-12-21T06:22:41.183Z,8.3
2017-12-21T06:23:41.170Z,8.36
2017-12-21T06:24:41.169Z,8.29
2017-12-21T06:25:41.156Z,8.33
2017-12-21T06:26:41.161Z,8.34
2017-12-21T06:27:41.126Z,8.34
2017-12-21T06:28:41.123Z,8.33
2017-12-21T06:29:40.849Z,8.4
2017-12-21T06:30:41.100Z,8.38
2017-12-21T06:31:41.084Z,8.4
2017-12-21T06:32:41.076Z,8.45
2017-12-21T06:33:41.071Z,8.41
2017-12-21T06:34:41.048Z,8.47
2017-12-21T06:35:41.054Z,8.44
2017-12-21T06:36:41.031Z,8.41
2017-12-21T06:37:41.036Z,8.5
2017-12-21T06:38:41.013Z,8.47
2017-12-21T06:39:40.999Z,8.44
2017-12-21T06:40:40.726Z,8.47
2017-12-21T06:41:40.974Z,8.43
2017-12-21T06:42:40.977Z,8.48
2017-12-21T06:43:40.947Z,8.41
2017-12-21T06:44:40.934Z,8.38
2017-12-21T06:45:40.930Z,8.44
2017-12-21T06:46:40.916Z,8.43
2017-12-21T06:47:40.910Z,8.48
2017-12-21T06:48:40.897Z,8.52
2017-12-21T06:49:40.883Z,8.37
2017-12-21T06:50:40.869Z,8.59
2017-12-21T06:51:40.860Z,8.44
2017-12-21T06:52:40.846Z,8.43
2017-12-21T06:53:40.600Z,8.37
2017-12-21T06:54:40.830Z,8.55
2017-12-21T06:55:40.816Z,8.43
2017-12-21T06:56:40.822Z,8.48
2017-12-21T06:57:40.800Z,8.48
2017-12-21T06:58:40.790Z,8.5
2017-12-21T06:59:40.769Z,8.52
2017-12-21T07:00:40.778Z,8.53
2017-12-21T07:01:40.806Z,8.47
2017-12-21T07:02:40.491Z,8.5
2017-12-21T07:03:40.465Z,8.5
2017-12-21T07:04:40.724Z,8.53
2017-12-21T07:05:40.701Z,8.53
2017-12-21T07:06:40.699Z,8.59
2017-12-21T07:07:40.702Z,8.48
2017-12-21T07:08:40.698Z,8.48
2017-12-21T07:09:40.662Z,8.48
2017-12-21T07:10:40.665Z,8.53
2017-12-21T07:11:40.721Z,8.61
2017-12-21T07:12:40.387Z,8.55
2017-12-21T07:13:40.626Z,8.58
2017-12-21T07:14:40.668Z,8.59
2017-12-21T07:15:40.590Z,8.62
2017-12-21T07:16:40.605Z,8.61
2017-12-21T07:17:40.586Z,8.7
2017-12-21T07:18:40.579Z,8.55
2017-12-21T07:19:40.557Z,8.65
2017-12-21T07:20:40.539Z,8.71
2017-12-21T07:21:40.590Z,8.62
2017-12-21T07:22:40.530Z,8.63
2017-12-21T07:23:40.292Z,8.68
2017-12-21T07:24:40.520Z,8.79
2017-12-21T07:25:40.508Z,8.68
2017-12-21T07:26:40.547Z,8.71
2017-12-21T07:27:40.226Z,8.74
2017-12-21T07:28:40.537Z,8.76
2017-12-21T07:29:40.468Z,8.8
2017-12-21T07:30:40.177Z,8.74
2017-12-21T07:31:40.472Z,8.83
2017-12-21T07:32:40.448Z,8.86
2017-12-21T07:33:40.406Z,8.86
2017-12-21T07:34:40.419Z,8.91
2017-12-21T07:35:40.385Z,8.87
2017-12-21T07:36:40.393Z,8.79
2017-12-21T07:37:40.382Z,8.81
2017-12-21T07:38:40.409Z,8.77
2017-12-21T07:39:40.342Z,8.74
2017-12-21T07:40:40.340Z,8.79
2017-12-21T07:41:40.315Z,8.77
2017-12-21T07:42:40.295Z,8.81
2017-12-21T07:43:40.325Z,8.79
2017-12-21T07:44:40.283Z,8.79
2017-12-21T07:45:40.283Z,8.76
2017-12-21T07:46:40.256Z,8.77
2017-12-21T07:47:40.258Z,8.81
2017-12-21T07:48:40.236Z,8.8
2017-12-21T07:49:40.225Z,8.8
2017-12-21T07:50:40.234Z,8.74
2017-12-21T07:51:40.213Z,8.74
2017-12-21T07:52:40.198Z,8.83
2017-12-21T07:53:40.199Z,8.8
2017-12-21T07:54:40.210Z,8.84
2017-12-21T07:55:40.183Z,8.83
2017-12-21T07:56:40.150Z,8.86
2017-12-21T07:57:40.143Z,8.96
2017-12-21T07:58:40.119Z,8.87
2017-12-21T07:59:40.121Z,8.92
2017-12-21T08:00:40.109Z,8.89
2017-12-21T08:01:40.089Z,8.91
2017-12-21T08:02:40.080Z,8.98
2017-12-21T08:03:39.815Z,8.98
2017-12-21T08:04:40.073Z,8.99
2017-12-21T08:05:40.055Z,9.04
2017-12-21T08:06:40.042Z,9.02
2017-12-21T08:07:40.032Z,9.08
2017-12-21T08:08:40.032Z,9.13
2017-12-21T08:09:40.020Z,9.08
2017-12-21T08:10:39.738Z,9.21
2017-12-21T08:11:39.723Z,9.2
2017-12-21T08:12:39.974Z,9.18
2017-12-21T08:13:39.988Z,9.17
2017-12-21T08:14:39.712Z,9.17
2017-12-21T08:15:39.689Z,9.15
2017-12-21T08:16:39.935Z,9.28
2017-12-21T08:17:39.932Z,9.21
2017-12-21T08:18:39.908Z,9.24
2017-12-21T08:19:39.657Z,9.28
2017-12-21T08:20:39.905Z,9.26
2017-12-21T08:21:39.874Z,9.31
2017-12-21T08:22:39.946Z,9.31
2017-12-21T08:23:39.617Z,9.33
2017-12-21T08:24:39.597Z,9.33
2017-12-21T08:25:39.832Z,9.31
2017-12-21T08:26:39.833Z,9.33
2017-12-21T08:27:39.342Z,9.31
2017-12-21T08:28:39.564Z,9.35
2017-12-21T08:29:39.794Z,9.32
2017-12-21T08:30:39.796Z,9.38
2017-12-21T08:31:39.783Z,9.36
2017-12-21T08:32:39.759Z,9.35
2017-12-21T08:33:39.781Z,9.42
2017-12-21T08:34:39.747Z,9.39
2017-12-21T08:35:39.740Z,9.4
2017-12-21T08:36:39.758Z,9.46
2017-12-21T08:37:39.733Z,9.4
2017-12-21T08:38:39.696Z,9.38
2017-12-21T08:39:39.718Z,9.4
2017-12-21T08:40:39.698Z,9.46
2017-12-21T08:41:39.675Z,9.48
2017-12-21T08:42:39.677Z,9.51
2017-12-21T08:43:39.680Z,9.48
2017-12-21T08:44:39.673Z,9.51
2017-12-21T08:45:39.664Z,9.47
2017-12-21T08:46:39.710Z,9.43
2017-12-21T08:47:39.654Z,9.4
2017-12-21T08:48:39.635Z,9.43
2017-12-21T08:49:39.656Z,9.4
2017-12-21T08:50:39.612Z,9.4
2017-12-21T08:51:39.457Z,9.47
2017-12-21T08:52:39.367Z,9.47
2017-12-21T08:53:40.028Z,9.48
2017-12-21T08:54:39.604Z,9.42
2017-12-21T08:55:39.546Z,9.43
2017-12-21T08:56:39.562Z,9.47
2017-12-21T08:57:39.588Z,9.48
2017-12-21T08:58:39.578Z,9.54
2017-12-21T08:59:39.263Z,9.47
2017-12-21T09:00:39.496Z,9.47
2017-12-21T09:01:38.960Z,9.48
2017-12-21T09:02:39.485Z,9.48
2017-12-21T09:03:39.494Z,9.56
2017-12-21T09:04:39.495Z,9.57
2017-12-21T09:05:39.194Z,9.56
2017-12-21T09:06:39.233Z,9.54
2017-12-21T09:07:39.197Z,9.61
2017-12-21T09:08:39.492Z,9.66
2017-12-21T09:09:39.422Z,9.56
2017-12-21T09:10:39.515Z,9.64
2017-12-21T09:11:39.397Z,9.66
2017-12-21T09:12:39.396Z,9.64
2017-12-21T09:13:39.139Z,9.71
2017-12-21T09:14:39.353Z,9.71
2017-12-21T09:15:39.486Z,9.71
2017-12-21T09:16:39.175Z,9.69
2017-12-21T09:17:39.403Z,9.68
2017-12-21T09:18:39.394Z,9.68
2017-12-21T09:19:39.376Z,9.79
2017-12-21T09:20:39.376Z,9.76
2017-12-21T09:21:39.411Z,9.68
2017-12-21T09:22:39.309Z,9.69
2017-12-21T09:23:39.360Z,9.69
2017-12-21T09:24:39.296Z,9.65
2017-12-21T09:25:39.008Z,9.71
2017-12-21T09:26:39.316Z,9.71
2017-12-21T09:27:39.236Z,9.71
2017-12-21T09:28:39.232Z,9.76
2017-12-21T09:29:39.227Z,9.71
2017-12-21T09:30:39.236Z,9.78
2017-12-21T09:31:39.184Z,9.81
2017-12-21T09:32:39.241Z,9.76
2017-12-21T09:33:38.927Z,9.69
2017-12-21T09:34:39.139Z,9.74
2017-12-21T09:35:38.904Z,9.66
2017-12-21T09:36:38.893Z,9.68
2017-12-21T09:37:39.221Z,9.69
2017-12-21T09:38:38.896Z,9.84
2017-12-21T09:39:38.877Z,9.74
2017-12-21T09:40:39.178Z,9.81
2017-12-21T09:41:39.100Z,9.76
2017-12-21T09:42:39.088Z,9.76
2017-12-21T09:43:38.816Z,9.81
2017-12-21T09:44:39.085Z,9.83
2017-12-21T09:45:39.069Z,9.76
2017-12-21T09:46:39.006Z,9.81
2017-12-21T09:47:39.071Z,9.83
2017-12-21T09:48:38.798Z,9.81
2017-12-21T09:49:39.050Z,9.86
2017-12-21T09:50:39.071Z,9.79
2017-12-21T09:51:38.737Z,9.93
2017-12-21T09:52:38.990Z,10.02
2017-12-21T09:53:38.997Z,9.93
2017-12-21T09:54:38.951Z,9.97
2017-12-21T09:55:38.964Z,10.04
2017-12-21T09:56:38.942Z,10.04
2017-12-21T09:57:38.939Z,10.02
2017-12-21T09:58:38.941Z,9.97
2017-12-21T09:59:38.969Z,10.04
2017-12-21T10:00:38.895Z,10.12
2017-12-21T10:01:38.908Z,10.08
2017-12-21T10:02:38.883Z,10.05
2017-12-21T10:03:38.853Z,10.12
2017-12-21T10:04:38.854Z,10.09
2017-12-21T10:05:38.841Z,10.09
2017-12-21T10:06:38.840Z,10.12
2017-12-21T10:07:38.832Z,10.14
2017-12-21T10:08:38.833Z,10.15
2017-12-21T10:09:38.812Z,10.2
2017-12-21T10:10:38.812Z,10.15
2017-12-21T10:11:38.803Z,10.22
2017-12-21T10:12:38.783Z,10.23
2017-12-21T10:13:38.511Z,10.34
2017-12-21T10:14:38.737Z,10.29
2017-12-21T10:15:38.491Z,10.36
2017-12-21T10:16:38.474Z,10.4
2017-12-21T10:17:38.729Z,10.38
2017-12-21T10:18:38.484Z,10.45
2017-12-21T10:19:38.701Z,10.48
2017-12-21T10:20:38.477Z,10.44
2017-12-21T10:21:38.682Z,10.42
2017-12-21T10:22:38.688Z,10.59
2017-12-21T10:23:38.706Z,10.53
2017-12-21T10:24:38.648Z,10.6
2017-12-21T10:25:38.641Z,10.64
2017-12-21T10:26:38.126Z,10.66
2017-12-21T10:27:38.612Z,10.78
2017-12-21T10:28:38.614Z,10.76
2017-12-21T10:29:38.648Z,10.74
2017-12-21T10:30:38.593Z,10.79
2017-12-21T10:31:38.365Z,10.76
2017-12-21T10:32:38.605Z,10.89
2017-12-21T10:33:39.164Z,10.86
2017-12-21T10:34:38.700Z,10.91
2017-12-21T10:35:38.315Z,11.1
2017-12-21T10:36:38.577Z,11.06
2017-12-21T10:37:38.369Z,11.15
2017-12-21T10:38:38.313Z,11.19
2017-12-21T10:39:38.605Z,11.1
2017-12-21T10:40:38.599Z,11.1
2017-12-21T10:41:38.250Z,11.06
2017-12-21T10:42:38.532Z,11.07
2017-12-21T10:43:38.535Z,11.03
2017-12-21T10:44:38.525Z,11.22
2017-12-21T10:45:37.950Z,11.14
2017-12-21T10:46:38.329Z,11.27
2017-12-21T10:47:38.514Z,11.28
2017-12-21T10:48:38.496Z,11.32
2017-12-21T10:49:38.549Z,11.27
2017-12-21T10:50:38.532Z,11.28
2017-12-21T10:51:38.475Z,11.44
2017-12-21T10:52:38.461Z,11.4
2017-12-21T10:53:38.440Z,11.35
2017-12-21T10:54:38.392Z,11.42
2017-12-21T10:55:38.435Z,11.44
2017-12-21T10:56:38.490Z,11.35
2017-12-21T10:57:38.172Z,11.44
2017-12-21T10:58:38.147Z,11.37
2017-12-21T10:59:38.415Z,11.37
2017-12-21T11:00:38.360Z,11.42
2017-12-21T11:01:38.346Z,11.32
2017-12-21T11:02:38.104Z,11.35
2017-12-21T11:03:38.360Z,11.37
2017-12-21T11:04:38.358Z,11.25
2017-12-21T11:05:38.321Z,11.27
2017-12-21T11:06:38.315Z,11.29
2017-12-21T11:07:38.345Z,11.27
2017-12-21T11:08:38.324Z,11.32
2017-12-21T11:09:38.284Z,11.32
2017-12-21T11:10:38.303Z,11.22
2017-12-21T11:11:38.280Z,11.24
2017-12-21T11:12:38.251Z,11.25
2017-12-21T11:13:38.277Z,11.11
2017-12-21T11:14:38.236Z,11.17
2017-12-21T11:15:38.241Z,11.03
2017-12-21T11:16:38.210Z,11.17
2017-12-21T11:17:38.478Z,11.19
2017-12-21T11:18:38.242Z,11.19
2017-12-21T11:19:37.949Z,11.21
2017-12-21T11:20:38.227Z,11.27
2017-12-21T11:21:38.273Z,11.24
2017-12-21T11:22:38.152Z,11.22
2017-12-21T11:23:38.238Z,11.24
2017-12-21T11:24:38.180Z,11.35
2017-12-21T11:25:38.148Z,11.28
2017-12-21T11:26:38.231Z,11.21
2017-12-21T11:27:38.149Z,11.33
2017-12-21T11:28:38.106Z,11.19
2017-12-21T11:29:38.202Z,11.36
2017-12-21T11:30:38.245Z,11.32
2017-12-21T11:31:37.875Z,11.36
2017-12-21T11:32:38.150Z,11.36
2017-12-21T11:33:38.148Z,11.35
2017-12-21T11:34:38.081Z,11.36
2017-12-21T11:35:38.042Z,11.4
2017-12-21T11:36:38.072Z,11.39
2017-12-21T11:37:38.014Z,11.43
2017-12-21T11:38:38.015Z,11.46
2017-12-21T11:39:38.071Z,11.46
2017-12-21T11:40:37.993Z,11.42
2017-12-21T11:41:38.008Z,11.54
2017-12-21T11:42:37.972Z,11.51
2017-12-21T11:43:37.980Z,11.52
2017-12-21T11:44:38.114Z,11.44
2017-12-21T11:45:38.188Z,11.4
2017-12-21T11:46:37.986Z,11.4
2017-12-21T11:47:37.976Z,11.4
2017-12-21T11:48:37.679Z,11.4
2017-12-21T11:49:37.905Z,11.43
2017-12-21T11:50:37.959Z,11.4
2017-12-21T11:51:37.908Z,11.47
2017-12-21T11:52:37.888Z,11.42
2017-12-21T11:53:37.876Z,11.51
2017-12-21T11:54:37.864Z,11.51
2017-12-21T11:55:37.856Z,11.51
2017-12-21T11:56:37.855Z,11.54
2017-12-21T11:57:37.993Z,11.55
2017-12-21T11:58:37.941Z,11.57
2017-12-21T11:59:37.825Z,11.49
2017-12-21T12:00:37.822Z,11.49
2017-12-21T12:01:37.882Z,11.44
2017-12-21T12:02:37.819Z,11.4
2017-12-21T12:03:37.787Z,11.39
2017-12-21T12:04:37.526Z,11.42
2017-12-21T12:05:37.782Z,11.29
2017-12-21T12:06:37.778Z,11.28
2017-12-21T12:07:37.800Z,11.4
2017-12-21T12:08:37.783Z,11.27
2017-12-21T12:09:37.743Z,11.33
2017-12-21T12:10:37.767Z,11.32
2017-12-21T12:11:37.725Z,11.32
2017-12-21T12:12:37.718Z,11.29
2017-12-21T12:13:37.439Z,11.18
2017-12-21T12:14:37.719Z,11.19
2017-12-21T12:15:37.677Z,11.1
2017-12-21T12:16:37.425Z,11.14
2017-12-21T12:17:37.667Z,11.07
2017-12-21T12:18:37.701Z,10.92
2017-12-21T12:19:37.699Z,10.97
2017-12-21T12:20:37.669Z,10.88
2017-12-21T12:21:37.645Z,10.88
2017-12-21T12:22:37.635Z,10.85
2017-12-21T12:23:37.390Z,10.76
2017-12-21T12:24:37.627Z,10.71
2017-12-21T12:25:37.701Z,10.73
2017-12-21T12:26:37.613Z,10.64
2017-12-21T12:27:37.583Z,10.6
2017-12-21T12:28:37.589Z,10.59
2017-12-21T12:29:37.304Z,10.53
2017-12-21T12:30:37.553Z,10.55
2017-12-21T12:31:37.546Z,10.53
2017-12-21T12:32:37.530Z,10.47
2017-12-21T12:33:37.257Z,10.44
2017-12-21T12:34:37.604Z,10.45
2017-12-21T12:35:37.510Z,10.42
2017-12-21T12:36:37.489Z,10.47
2017-12-21T12:37:37.240Z,10.45
2017-12-21T12:38:37.486Z,10.41
2017-12-21T12:39:37.461Z,10.45
2017-12-21T12:40:37.477Z,10.34
2017-12-21T12:41:37.183Z,10.41
2017-12-21T12:42:37.437Z,10.36
2017-12-21T12:43:37.437Z,10.29
2017-12-21T12:44:37.431Z,10.3
2017-12-21T12:45:37.431Z,10.3
2017-12-21T12:46:37.413Z,10.41
2017-12-21T12:47:37.408Z,10.33
2017-12-21T12:48:37.420Z,10.23
2017-12-21T12:49:37.397Z,10.18
2017-12-21T12:50:37.369Z,10.22
2017-12-21T12:51:37.835Z,10.15
2017-12-21T12:52:37.358Z,10.23
2017-12-21T12:53:37.348Z,10.25
2017-12-21T12:54:37.331Z,10.22
2017-12-21T12:55:37.320Z,10.17
2017-12-21T12:56:37.422Z,10.12
2017-12-21T12:57:37.293Z,10.2
2017-12-21T12:58:37.338Z,10.25
2017-12-21T12:59:37.282Z,10.17
2017-12-21T13:00:37.028Z,10.18
2017-12-21T13:01:37.287Z,10.23
2017-12-21T13:02:37.338Z,10.25
2017-12-21T13:03:37.413Z,10.29
2017-12-21T13:04:37.334Z,10.27
2017-12-21T13:05:37.304Z,10.26
2017-12-21T13:06:37.331Z,10.26
2017-12-21T13:07:37.320Z,10.32
2017-12-21T13:08:37.805Z,10.32
2017-12-21T13:09:37.299Z,10.32
2017-12-21T13:10:37.319Z,10.3
2017-12-21T13:11:37.267Z,10.27
2017-12-21T13:12:37.262Z,10.34
2017-12-21T13:13:37.270Z,10.32
2017-12-21T13:14:37.688Z,10.29